createdAt,value
2023-04-18T00:00:40.137Z,2656.00
2023-04-18T00:01:40.184Z,2687.00
2023-04-18T00:02:40.356Z,2662.00
2023-04-18T00:03:40.484Z,2661.00
2023-04-18T00:04:40.357Z,2665.00
2023-04-18T00:05:40.315Z,2685.00
2023-04-18T00:06:40.346Z,2706.00
2023-04-18T00:07:40.389Z,2673.00
2023-04-18T00:08:40.438Z,2663.00
2023-04-18T00:09:40.497Z,2673.00
2023-04-18T00:10:40.501Z,2650.00
2023-04-18T00:11:40.543Z,2633.00
2023-04-18T00:12:40.569Z,2618.00
2023-04-18T00:13:40.621Z,2618.00
2023-04-18T00:14:40.647Z,2613.00
2023-04-18T00:15:40.699Z,2631.00
2023-04-18T00:16:40.803Z,2638.00
2023-04-18T00:17:40.808Z,2638.00
2023-04-18T00:18:40.792Z,2637.00
2023-04-18T00:19:40.853Z,2619.00
2023-04-18T00:20:40.888Z,2613.00
2023-04-18T00:21:40.933Z,2606.00
2023-04-18T00:22:40.957Z,2612.00
2023-04-18T00:23:41.012Z,2610.00
2023-04-18T00:24:41.037Z,2600.00
2023-04-18T00:25:41.076Z,2583.00
2023-04-18T00:26:41.139Z,2600.00
2023-04-18T00:27:41.147Z,2576.00
2023-04-18T00:28:41.199Z,2575.00
2023-04-18T00:29:41.234Z,2598.00
2023-04-18T00:30:41.289Z,2591.00
2023-04-18T00:31:41.303Z,2608.00
2023-04-18T00:32:41.395Z,2611.00
2023-04-18T00:33:41.393Z,2593.00
2023-04-18T00:34:41.429Z,2616.00
2023-04-18T00:35:41.546Z,2593.00
2023-04-18T00:36:41.501Z,2605.00
2023-04-18T00:37:41.499Z,2587.00
2023-04-18T00:38:41.523Z,2600.00
2023-04-18T00:39:41.593Z,2587.00
2023-04-18T00:40:41.612Z,2594.00
2023-04-18T00:41:41.648Z,2589.00
2023-04-18T00:42:41.674Z,2608.00
2023-04-18T00:43:41.717Z,2603.00
2023-04-18T00:44:41.754Z,2594.00
2023-04-18T00:45:41.799Z,2593.00
2023-04-18T00:46:41.837Z,2588.00
2023-04-18T00:47:41.901Z,2592.00
2023-04-18T00:48:41.881Z,2611.00
2023-04-18T00:49:41.952Z,2606.00
2023-04-18T00:50:41.969Z,2616.00
2023-04-18T00:51:42.075Z,2623.00
2023-04-18T00:52:42.071Z,2641.00
2023-04-18T00:53:42.093Z,2595.00
2023-04-18T00:54:42.155Z,2578.00
2023-04-18T00:55:42.187Z,2591.00
2023-04-18T00:56:42.200Z,2578.00
2023-04-18T00:57:42.270Z,2577.00
2023-04-18T00:58:42.293Z,2573.00
2023-04-18T00:59:42.344Z,2578.00
2023-04-18T01:00:42.351Z,2590.00
2023-04-18T01:01:42.414Z,2587.00
2023-04-18T01:02:42.573Z,2575.00
2023-04-18T01:03:42.673Z,2586.00
2023-04-18T01:04:42.740Z,2575.00
2023-04-18T01:05:42.552Z,2586.00
2023-04-18T01:06:42.580Z,2569.00
2023-04-18T01:07:42.612Z,2576.00
2023-04-18T01:08:42.653Z,2554.00
2023-04-18T01:09:42.692Z,2560.00
2023-04-18T01:10:42.736Z,2575.00
2023-04-18T01:11:42.765Z,2572.00
2023-04-18T01:12:42.807Z,2586.00
2023-04-18T01:13:42.834Z,2549.00
2023-04-18T01:14:42.886Z,2585.00
2023-04-18T01:15:42.952Z,2583.00
2023-04-18T01:16:42.966Z,2582.00
2023-04-18T01:17:43.030Z,2590.00
2023-04-18T01:18:43.042Z,2578.00
2023-04-18T01:19:43.066Z,2560.00
2023-04-18T01:20:43.124Z,2538.00
2023-04-18T01:21:43.138Z,2529.00
2023-04-18T01:22:43.200Z,2564.00
2023-04-18T01:23:43.214Z,2545.00
2023-04-18T01:24:43.264Z,2558.00
2023-04-18T01:25:43.294Z,2544.00
2023-04-18T01:26:43.322Z,2530.00
2023-04-18T01:27:43.382Z,2535.00
2023-04-18T01:28:43.394Z,2546.00
2023-04-18T01:29:43.453Z,2535.00
2023-04-18T01:30:43.493Z,2524.00
2023-04-18T01:31:43.619Z,2544.00
2023-04-18T01:32:43.602Z,2530.00
2023-04-18T01:33:43.615Z,2526.00
2023-04-18T01:34:43.656Z,2528.00
2023-04-18T01:35:43.704Z,2531.00
2023-04-18T01:36:43.740Z,2533.00
2023-04-18T01:37:43.757Z,2528.00
2023-04-18T01:38:43.789Z,2528.00
2023-04-18T01:39:43.852Z,2525.00
2023-04-18T01:40:43.873Z,2520.00
2023-04-18T01:41:43.910Z,2533.00
2023-04-18T01:42:43.968Z,2513.00
2023-04-18T01:43:43.992Z,2510.00
2023-04-18T01:44:44.041Z,2506.00
2023-04-18T01:45:44.078Z,2492.00
2023-04-18T01:46:44.125Z,2486.00
2023-04-18T01:47:44.225Z,2472.00
2023-04-18T01:48:44.188Z,2479.00
2023-04-18T01:49:44.234Z,2480.00
2023-04-18T01:50:44.264Z,2485.00
2023-04-18T01:51:44.323Z,2488.00
2023-04-18T01:52:44.368Z,2470.00
2023-04-18T01:53:44.403Z,2477.00
2023-04-18T01:54:44.430Z,2485.00
2023-04-18T01:55:44.579Z,2470.00
2023-04-18T01:56:44.513Z,2456.00
2023-04-18T01:57:44.560Z,2468.00
2023-04-18T01:58:44.608Z,2462.00
2023-04-18T01:59:44.656Z,2458.00
2023-04-18T02:00:44.721Z,2438.00
2023-04-18T02:01:44.753Z,2463.00
2023-04-18T02:02:44.833Z,2455.00
2023-04-18T02:03:44.928Z,2434.00
2023-04-18T02:04:44.824Z,2435.00
2023-04-18T02:05:44.876Z,2448.00
2023-04-18T02:06:44.908Z,2462.00
2023-04-18T02:07:44.943Z,2461.00
2023-04-18T02:08:45.011Z,2447.00
2023-04-18T02:09:45.008Z,2435.00
2023-04-18T02:10:45.086Z,2438.00
2023-04-18T02:11:45.088Z,2456.00
2023-04-18T02:12:45.111Z,2444.00
2023-04-18T02:13:45.165Z,2432.00
2023-04-18T02:14:45.204Z,2402.00
2023-04-18T02:15:45.237Z,2415.00
2023-04-18T02:16:45.380Z,2400.00
2023-04-18T02:17:45.359Z,2417.00
2023-04-18T02:18:45.401Z,2399.00
2023-04-18T02:19:45.394Z,2434.00
2023-04-18T02:20:45.442Z,2415.00
2023-04-18T02:21:45.482Z,2394.00
2023-04-18T02:22:45.527Z,2407.00
2023-04-18T02:23:45.540Z,2418.00
2023-04-18T02:24:45.578Z,2392.00
2023-04-18T02:25:45.638Z,2400.00
2023-04-18T02:26:45.675Z,2407.00
2023-04-18T02:27:45.707Z,2406.00
2023-04-18T02:28:45.718Z,2376.00
2023-04-18T02:29:45.760Z,2385.00
2023-04-18T02:30:45.794Z,2406.00
2023-04-18T02:31:45.936Z,2427.00
2023-04-18T02:32:45.916Z,2409.00
2023-04-18T02:33:45.919Z,2389.00
2023-04-18T02:34:45.985Z,2415.00
2023-04-18T02:35:46.014Z,2433.00
2023-04-18T02:36:46.060Z,2427.00
2023-04-18T02:37:46.096Z,2385.00
2023-04-18T02:38:46.131Z,2389.00
2023-04-18T02:39:46.155Z,2377.00
2023-04-18T02:40:46.185Z,2401.00
2023-04-18T02:41:46.241Z,2414.00
2023-04-18T02:42:46.268Z,2382.00
2023-04-18T02:43:46.321Z,2412.00
2023-04-18T02:44:46.344Z,2394.00
2023-04-18T02:45:46.458Z,2409.00
2023-04-18T02:46:46.464Z,2388.00
2023-04-18T02:47:54.740Z,2377.00
2023-04-18T02:48:47.468Z,2378.00
2023-04-18T02:49:46.463Z,2382.00
2023-04-18T02:50:46.435Z,2385.00
2023-04-18T02:51:46.430Z,2387.00
2023-04-18T02:52:46.441Z,2398.00
2023-04-18T02:53:46.433Z,2403.00
2023-04-18T02:54:46.416Z,2386.00
2023-04-18T02:55:46.407Z,2363.00
2023-04-18T02:56:46.402Z,2360.00
2023-04-18T02:57:46.411Z,2390.00
2023-04-18T02:58:46.398Z,2388.00
2023-04-18T02:59:46.466Z,2400.00
2023-04-18T03:00:46.456Z,2394.00
2023-04-18T03:01:46.601Z,2418.00
2023-04-18T03:02:46.649Z,2399.00
2023-04-18T03:03:46.600Z,2401.00
2023-04-18T03:04:46.642Z,2418.00
2023-04-18T03:05:46.685Z,2400.00
2023-04-18T03:06:46.726Z,2384.00
2023-04-18T03:07:46.751Z,2386.00
2023-04-18T03:08:46.809Z,2394.00
2023-04-18T03:09:46.829Z,2391.00
2023-04-18T03:10:46.855Z,2368.00
2023-04-18T03:11:46.907Z,2380.00
2023-04-18T03:12:46.960Z,2389.00
2023-04-18T03:13:46.988Z,2405.00
2023-04-18T03:14:47.037Z,2393.00
2023-04-18T03:15:47.076Z,2375.00
2023-04-18T03:16:47.106Z,2366.00
2023-04-18T03:17:47.169Z,2372.00
2023-04-18T03:18:47.171Z,2360.00
2023-04-18T03:19:47.229Z,2361.00
2023-04-18T03:20:47.266Z,2339.00
2023-04-18T03:21:47.314Z,2371.00
2023-04-18T03:22:47.330Z,2352.00
2023-04-18T03:23:47.375Z,2381.00
2023-04-18T03:24:47.472Z,2372.00
2023-04-18T03:25:47.451Z,2350.00
2023-04-18T03:26:47.500Z,2359.00
2023-04-18T03:27:47.527Z,2346.00
2023-04-18T03:28:47.562Z,2353.00
2023-04-18T03:29:47.619Z,2364.00
2023-04-18T03:30:47.636Z,2347.00
2023-04-18T03:31:47.727Z,2321.00
2023-04-18T03:32:47.753Z,2326.00
2023-04-18T03:33:47.758Z,2320.00
2023-04-18T03:34:47.806Z,2322.00
2023-04-18T03:35:47.854Z,2330.00
2023-04-18T03:36:48.312Z,2311.00
2023-04-18T03:37:47.944Z,2331.00
2023-04-18T03:38:47.969Z,2311.00
2023-04-18T03:39:48.030Z,2291.00
2023-04-18T03:40:48.068Z,2312.00
2023-04-18T03:41:48.138Z,2316.00
2023-04-18T03:42:48.170Z,2312.00
2023-04-18T03:43:48.191Z,2309.00
2023-04-18T03:44:48.225Z,2306.00
2023-04-18T03:45:48.308Z,2326.00
2023-04-18T03:46:48.341Z,2298.00
2023-04-18T03:47:48.441Z,2298.00
2023-04-18T03:48:48.427Z,2316.00
2023-04-18T03:49:48.470Z,2327.00
2023-04-18T03:50:48.512Z,2302.00
2023-04-18T03:51:48.574Z,2292.00
2023-04-18T03:52:48.575Z,2330.00
2023-04-18T03:53:48.617Z,2321.00
2023-04-18T03:54:48.667Z,2338.00
2023-04-18T03:55:48.715Z,2292.00
2023-04-18T03:56:48.848Z,2312.00
2023-04-18T03:57:48.811Z,2311.00
2023-04-18T03:58:48.857Z,2299.00
2023-04-18T03:59:48.879Z,2286.00
2023-04-18T04:00:48.924Z,2291.00
2023-04-18T04:01:49.033Z,2287.00
2023-04-18T04:02:49.134Z,2303.00
2023-04-18T04:03:49.197Z,2290.00
2023-04-18T04:04:49.170Z,2292.00
2023-04-18T04:05:49.132Z,2279.00
2023-04-18T04:06:49.179Z,2282.00
2023-04-18T04:07:49.231Z,2295.00
2023-04-18T04:08:49.279Z,2298.00
2023-04-18T04:09:49.316Z,2296.00
2023-04-18T04:10:49.353Z,2282.00
2023-04-18T04:11:49.395Z,2279.00
2023-04-18T04:12:49.470Z,2262.00
2023-04-18T04:13:49.485Z,2267.00
2023-04-18T04:14:49.525Z,2262.00
2023-04-18T04:15:49.567Z,2290.00
2023-04-18T04:16:49.763Z,2270.00
2023-04-18T04:17:49.828Z,2273.00
2023-04-18T04:18:49.725Z,2250.00
2023-04-18T04:19:49.767Z,2288.00
2023-04-18T04:20:49.799Z,2263.00
2023-04-18T04:21:49.834Z,2268.00
2023-04-18T04:22:49.886Z,2249.00
2023-04-18T04:23:49.933Z,2232.00
2023-04-18T04:24:49.975Z,2256.00
2023-04-18T04:25:50.024Z,2265.00
2023-04-18T04:26:50.081Z,2248.00
2023-04-18T04:27:50.138Z,2270.00
2023-04-18T04:28:50.159Z,2263.00
2023-04-18T04:29:50.230Z,2248.00
2023-04-18T04:30:50.266Z,2221.00
2023-04-18T04:31:50.324Z,2248.00
2023-04-18T04:32:50.406Z,2237.00
2023-04-18T04:33:50.400Z,2230.00
2023-04-18T04:34:50.453Z,2233.00
2023-04-18T04:35:50.485Z,2239.00
2023-04-18T04:36:50.527Z,2241.00
2023-04-18T04:37:50.575Z,2254.00
2023-04-18T04:38:50.623Z,2229.00
2023-04-18T04:39:50.675Z,2233.00
2023-04-18T04:40:50.710Z,2235.00
2023-04-18T04:41:50.745Z,2228.00
2023-04-18T04:42:50.807Z,2217.00
2023-04-18T04:43:50.863Z,2227.00
2023-04-18T04:44:50.958Z,2229.00
2023-04-18T04:45:50.995Z,2230.00
2023-04-18T04:46:50.970Z,2235.00
2023-04-18T04:47:51.061Z,2249.00
2023-04-18T04:48:51.064Z,2252.00
2023-04-18T04:49:51.152Z,2260.00
2023-04-18T04:50:51.165Z,2279.00
2023-04-18T04:51:51.190Z,2275.00
2023-04-18T04:52:51.230Z,2257.00
2023-04-18T04:53:51.279Z,2267.00
2023-04-18T04:54:51.325Z,2275.00
2023-04-18T04:55:51.371Z,2270.00
2023-04-18T04:56:51.438Z,2267.00
2023-04-18T04:57:51.491Z,2263.00
2023-04-18T04:58:51.548Z,2266.00
2023-04-18T04:59:51.574Z,2215.00
2023-04-18T05:00:51.645Z,2243.00
2023-04-18T05:01:51.721Z,2258.00
2023-04-18T05:02:51.811Z,2233.00
2023-04-18T05:03:51.912Z,2261.00
2023-04-18T05:04:51.819Z,2275.00
2023-04-18T05:05:51.864Z,2263.00
2023-04-18T05:06:51.899Z,2251.00
2023-04-18T05:07:51.932Z,2268.00
2023-04-18T05:08:51.987Z,2254.00
2023-04-18T05:09:52.028Z,2261.00
2023-04-18T05:10:52.060Z,2282.00
2023-04-18T05:11:52.122Z,2267.00
2023-04-18T05:12:52.172Z,2269.00
2023-04-18T05:13:52.226Z,2261.00
2023-04-18T05:14:52.260Z,2270.00
2023-04-18T05:15:52.303Z,2264.00
2023-04-18T05:16:52.350Z,2263.00
2023-04-18T05:17:52.480Z,2262.00
2023-04-18T05:18:52.436Z,2245.00
2023-04-18T05:19:52.489Z,2250.00
2023-04-18T05:20:52.546Z,2248.00
2023-04-18T05:21:52.568Z,2258.00
2023-04-18T05:22:52.668Z,2270.00
2023-04-18T05:23:52.666Z,2260.00
2023-04-18T05:24:52.692Z,2274.00
2023-04-18T05:25:52.736Z,2262.00
2023-04-18T05:26:52.821Z,2289.00
2023-04-18T05:27:52.857Z,2314.00
2023-04-18T05:28:52.877Z,2374.00
2023-04-18T05:29:52.942Z,2378.00
2023-04-18T05:30:53.006Z,2382.00
2023-04-18T05:31:53.012Z,2392.00
2023-04-18T05:32:53.104Z,2262.00
2023-04-18T05:33:53.121Z,2282.00
2023-04-18T05:34:53.119Z,2295.00
2023-04-18T05:35:53.168Z,2290.00
2023-04-18T05:36:53.203Z,2201.00
2023-04-18T05:37:53.240Z,2213.00
2023-04-18T05:38:53.262Z,2131.00
2023-04-18T05:39:53.308Z,2131.00
2023-04-18T05:40:53.305Z,2168.00
2023-04-18T05:41:53.300Z,2280.00
2023-04-18T05:42:53.348Z,2298.00
2023-04-18T05:44:04.245Z,2343.00
2023-04-18T05:44:54.407Z,2346.00
2023-04-18T05:45:54.292Z,2362.00
2023-04-18T05:46:53.408Z,2379.00
2023-04-18T05:47:53.565Z,2391.00
2023-04-18T05:48:53.504Z,2419.00
2023-04-18T05:49:53.573Z,2454.00
2023-04-18T05:50:53.572Z,2523.00
2023-04-18T05:51:53.546Z,2588.00
2023-04-18T05:52:53.638Z,2624.00
2023-04-18T05:53:53.678Z,2694.00
2023-04-18T05:54:54.026Z,2729.00
2023-04-18T05:55:53.792Z,2756.00
2023-04-18T05:56:53.763Z,2769.00
2023-04-18T05:57:53.774Z,2806.00
2023-04-18T05:58:53.784Z,2846.00
2023-04-18T05:59:53.788Z,2874.00
2023-04-18T06:00:53.790Z,2911.00
2023-04-18T06:01:53.882Z,2939.00
2023-04-18T06:02:54.210Z,2966.00
2023-04-18T06:03:54.207Z,2990.00
2023-04-18T06:04:54.178Z,3015.00
2023-04-18T06:05:54.142Z,3051.00
2023-04-18T06:06:54.101Z,3068.00
2023-04-18T06:07:54.161Z,3056.00
2023-04-18T06:08:54.200Z,3093.00
2023-04-18T06:09:54.228Z,3094.00
2023-04-18T06:10:54.273Z,3109.00
2023-04-18T06:11:54.288Z,3097.00
2023-04-18T06:12:54.316Z,3115.00
2023-04-18T06:13:54.486Z,3139.00
2023-04-18T06:14:54.413Z,3124.00
2023-04-18T06:15:54.475Z,3121.00
2023-04-18T06:16:54.450Z,3129.00
2023-04-18T06:17:54.469Z,3134.00
2023-04-18T06:18:54.460Z,3122.00
2023-04-18T06:19:54.506Z,3106.00
2023-04-18T06:20:54.521Z,3111.00
2023-04-18T06:21:54.529Z,3110.00
2023-04-18T06:22:54.545Z,3142.00
2023-04-18T06:23:54.575Z,3149.00
2023-04-18T06:24:54.582Z,3153.00
2023-04-18T06:25:54.602Z,3142.00
2023-04-18T06:26:54.648Z,3152.00
2023-04-18T06:27:54.641Z,3176.00
2023-04-18T06:28:54.686Z,3162.00
2023-04-18T06:29:54.690Z,3154.00
2023-04-18T06:30:54.703Z,3155.00
2023-04-18T06:31:54.769Z,3016.00
2023-04-18T06:32:54.758Z,3022.00
2023-04-18T06:33:54.764Z,2756.00
2023-04-18T06:34:54.785Z,2435.00
2023-04-18T06:35:54.813Z,2326.00
2023-04-18T06:36:54.882Z,2293.00
2023-04-18T06:37:54.943Z,2381.00
2023-04-18T06:38:54.973Z,2479.00
2023-04-18T06:39:55.057Z,2517.00
2023-04-18T06:40:55.091Z,2571.00
2023-04-18T06:41:55.177Z,2628.00
2023-04-18T06:42:55.216Z,2667.00
2023-04-18T06:44:03.612Z,2707.00
2023-04-18T06:44:56.510Z,2710.00
2023-04-18T06:45:55.256Z,2721.00
2023-04-18T06:46:55.253Z,2744.00
2023-04-18T06:47:55.280Z,2769.00
2023-04-18T06:48:55.285Z,2793.00
2023-04-18T06:49:55.223Z,2803.00
2023-04-18T06:50:55.208Z,2841.00
2023-04-18T06:51:55.202Z,2882.00
2023-04-18T06:52:55.210Z,2856.00
2023-04-18T06:53:55.201Z,2866.00
2023-04-18T06:54:55.187Z,2883.00
2023-04-18T06:55:55.194Z,2841.00
2023-04-18T06:56:55.153Z,2699.00
2023-04-18T06:57:55.166Z,2558.00
2023-04-18T06:58:55.512Z,2473.00
2023-04-18T06:59:55.176Z,2431.00
2023-04-18T07:00:55.196Z,2417.00
2023-04-18T07:01:55.236Z,2445.00
2023-04-18T07:02:55.337Z,2380.00
2023-04-18T07:03:55.605Z,2391.00
2023-04-18T07:04:55.335Z,2420.00
2023-04-18T07:05:55.366Z,2390.00
2023-04-18T07:06:55.430Z,2364.00
2023-04-18T07:07:55.554Z,2311.00
2023-04-18T07:08:55.569Z,2329.00
2023-04-18T07:09:55.558Z,2309.00
2023-04-18T07:10:55.625Z,2292.00
2023-04-18T07:11:55.726Z,2195.00
2023-04-18T07:12:55.765Z,2232.00
2023-04-18T07:13:55.801Z,2685.00
2023-04-18T07:14:55.806Z,2441.00
2023-04-18T07:15:55.842Z,2429.00
2023-04-18T07:16:55.849Z,2402.00
2023-04-18T07:17:55.937Z,2433.00
2023-04-18T07:18:55.879Z,2386.00
2023-04-18T07:19:55.885Z,2297.00
2023-04-18T07:20:55.866Z,2294.00
2023-04-18T07:21:55.865Z,2288.00
2023-04-18T07:22:55.892Z,2289.00
2023-04-18T07:23:55.908Z,2342.00
2023-04-18T07:24:55.918Z,2341.00
2023-04-18T07:25:55.938Z,2358.00
2023-04-18T07:26:55.945Z,2186.00
2023-04-18T07:27:55.936Z,1954.00
2023-04-18T07:28:55.951Z,1763.00
2023-04-18T07:29:55.986Z,1550.00
2023-04-18T07:30:56.522Z,1567.00
2023-04-18T07:31:56.098Z,1682.00
2023-04-18T07:32:56.078Z,1730.00
2023-04-18T07:33:56.513Z,1795.00
2023-04-18T07:34:56.075Z,1899.00
2023-04-18T07:35:56.514Z,1951.00
2023-04-18T07:36:56.165Z,1984.00
2023-04-18T07:37:56.208Z,2024.00
2023-04-18T07:38:56.236Z,2129.00
2023-04-18T07:39:56.248Z,2291.00
2023-04-18T07:40:56.546Z,2323.00
2023-04-18T07:41:56.302Z,2405.00
2023-04-18T07:42:56.358Z,2458.00
2023-04-18T07:43:56.540Z,2503.00
2023-04-18T07:44:56.446Z,2527.00
2023-04-18T07:45:56.534Z,2555.00
2023-04-18T07:46:56.495Z,2567.00
2023-04-18T07:47:56.538Z,2578.00
2023-04-18T07:48:57.047Z,2595.00
2023-04-18T07:49:56.558Z,2592.00
2023-04-18T07:50:56.568Z,2600.00
2023-04-18T07:51:56.602Z,2613.00
2023-04-18T07:52:56.582Z,2614.00
2023-04-18T07:53:56.617Z,2615.00
2023-04-18T07:54:56.632Z,2613.00
2023-04-18T07:55:56.665Z,2620.00
2023-04-18T07:56:56.692Z,2627.00
2023-04-18T07:57:56.760Z,2633.00
2023-04-18T07:58:56.851Z,2651.00
2023-04-18T07:59:56.870Z,2656.00
2023-04-18T08:00:56.911Z,2683.00
2023-04-18T08:01:56.972Z,2690.00
2023-04-18T08:02:57.104Z,2691.00
2023-04-18T08:03:57.142Z,2697.00
2023-04-18T08:04:57.268Z,2702.00
2023-04-18T08:05:57.158Z,2708.00
2023-04-18T08:06:57.228Z,2705.00
2023-04-18T08:07:57.269Z,2718.00
2023-04-18T08:08:57.317Z,2700.00
2023-04-18T08:09:57.386Z,2707.00
2023-04-18T08:10:57.467Z,2724.00
2023-04-18T08:11:57.527Z,2733.00
2023-04-18T08:12:57.554Z,2710.00
2023-04-18T08:13:57.608Z,2708.00
2023-04-18T08:14:58.037Z,2715.00
2023-04-18T08:15:57.795Z,2711.00
2023-04-18T08:16:57.794Z,2720.00
2023-04-18T08:17:57.881Z,2692.00
2023-04-18T08:18:57.943Z,2712.00
2023-04-18T08:19:58.027Z,2702.00
2023-04-18T08:20:58.045Z,2723.00
2023-04-18T08:21:58.077Z,2698.00
2023-04-18T08:23:07.577Z,2697.00
2023-04-18T08:23:59.101Z,2697.00
2023-04-18T08:25:04.908Z,2700.00
2023-04-18T08:25:59.085Z,2698.00
2023-04-18T08:26:58.086Z,2664.00
2023-04-18T08:27:58.122Z,2694.00
2023-04-18T08:28:58.155Z,2701.00
2023-04-18T08:29:58.543Z,2688.00
2023-04-18T08:30:58.266Z,2563.00
2023-04-18T08:31:58.363Z,2484.00
2023-04-18T08:32:58.447Z,2417.00
2023-04-18T08:33:58.428Z,2291.00
2023-04-18T08:34:58.536Z,2186.00
2023-04-18T08:35:58.551Z,2062.00
2023-04-18T08:36:58.623Z,2200.00
2023-04-18T08:37:58.668Z,2278.00
2023-04-18T08:38:58.681Z,2383.00
2023-04-18T08:39:58.716Z,2408.00
2023-04-18T08:40:58.751Z,2424.00
2023-04-18T08:41:58.783Z,2451.00
2023-04-18T08:42:58.829Z,2391.00
2023-04-18T08:43:58.855Z,2330.00
2023-04-18T08:44:58.900Z,2253.00
2023-04-18T08:45:58.942Z,2199.00
2023-04-18T08:46:58.919Z,2170.00
2023-04-18T08:47:58.967Z,2136.00
2023-04-18T08:48:58.964Z,2117.00
2023-04-18T08:49:58.965Z,2100.00
2023-04-18T08:50:58.977Z,2028.00
2023-04-18T08:51:59.101Z,2039.00
2023-04-18T08:52:58.961Z,2100.00
2023-04-18T08:53:58.945Z,2095.00
2023-04-18T08:54:58.954Z,2074.00
2023-04-18T08:55:59.051Z,2054.00
2023-04-18T08:56:58.973Z,2050.00
2023-04-18T08:57:58.976Z,2041.00
2023-04-18T08:58:59.005Z,1983.00
2023-04-18T08:59:58.997Z,1962.00
2023-04-18T09:00:59.123Z,1868.00
2023-04-18T09:01:59.287Z,1835.00
2023-04-18T09:02:59.231Z,1821.00
2023-04-18T09:03:59.160Z,1761.00
2023-04-18T09:04:59.140Z,1721.00
2023-04-18T09:05:59.547Z,1773.00
2023-04-18T09:06:59.155Z,1733.00
2023-04-18T09:07:59.165Z,1658.00
2023-04-18T09:08:59.383Z,1661.00
2023-04-18T09:09:59.205Z,1627.00
2023-04-18T09:10:59.254Z,1661.00
2023-04-18T09:11:59.228Z,1555.00
2023-04-18T09:12:59.239Z,1597.00
2023-04-18T09:13:59.324Z,1527.00
2023-04-18T09:14:59.287Z,1408.00
2023-04-18T09:15:59.575Z,1411.00
2023-04-18T09:16:59.453Z,1410.00
2023-04-18T09:17:59.394Z,1445.00
2023-04-18T09:18:59.376Z,1435.00
2023-04-18T09:19:59.444Z,1453.00
2023-04-18T09:20:59.457Z,1395.00
2023-04-18T09:21:59.428Z,1380.00
2023-04-18T09:22:59.445Z,1415.00
2023-04-18T09:23:59.458Z,1609.00
2023-04-18T09:24:59.592Z,1736.00
2023-04-18T09:25:59.532Z,1831.00
2023-04-18T09:26:59.516Z,1812.00
2023-04-18T09:27:59.487Z,1895.00
2023-04-18T09:28:59.469Z,1969.00
2023-04-18T09:29:59.579Z,1969.00
2023-04-18T09:30:59.539Z,2122.00
2023-04-18T09:31:59.522Z,2557.00
2023-04-18T09:32:59.674Z,2508.00
2023-04-18T09:33:59.577Z,2450.00
2023-04-18T09:35:01.372Z,2412.00
2023-04-18T09:36:00.079Z,2463.00
2023-04-18T09:36:59.671Z,2443.00
2023-04-18T09:37:59.614Z,2410.00
2023-04-18T09:38:59.600Z,2382.00
2023-04-18T09:39:59.698Z,2340.00
2023-04-18T09:40:59.595Z,2315.00
2023-04-18T09:41:59.576Z,2135.00
2023-04-18T09:42:59.561Z,1865.00
2023-04-18T09:43:59.554Z,1672.00
2023-04-18T09:44:59.583Z,1504.00
2023-04-18T09:45:59.591Z,1165.00
2023-04-18T09:46:59.567Z,793.00
2023-04-18T09:47:59.605Z,1398.00
2023-04-18T09:48:59.533Z,1732.00
2023-04-18T09:49:59.540Z,1738.00
2023-04-18T09:50:59.533Z,1766.00
2023-04-18T09:51:59.573Z,1802.00
2023-04-18T09:52:59.501Z,1805.00
2023-04-18T09:53:59.511Z,1846.00
2023-04-18T09:54:59.508Z,1817.00
2023-04-18T09:55:59.539Z,1715.00
2023-04-18T09:56:59.477Z,1439.00
2023-04-18T09:57:59.478Z,1513.00
2023-04-18T09:58:59.461Z,1142.00
2023-04-18T09:59:59.462Z,1196.00
2023-04-18T10:00:59.585Z,1093.00
2023-04-18T10:01:59.640Z,1035.00
2023-04-18T10:02:59.542Z,1150.00
2023-04-18T10:03:59.601Z,1069.00
2023-04-18T10:04:59.505Z,910.00
2023-04-18T10:05:59.434Z,825.00
2023-04-18T10:06:59.403Z,734.00
2023-04-18T10:07:59.472Z,738.00
2023-04-18T10:08:59.510Z,833.00
2023-04-18T10:09:59.560Z,1121.00
2023-04-18T10:10:59.638Z,874.00
2023-04-18T10:11:59.740Z,906.00
2023-04-18T10:12:59.686Z,1185.00
2023-04-18T10:13:59.716Z,884.00
2023-04-18T10:14:59.793Z,1063.00
2023-04-18T10:15:59.849Z,881.00
2023-04-18T10:16:59.855Z,898.00
2023-04-18T10:18:05.082Z,648.00
2023-04-18T10:19:01.267Z,653.00
2023-04-18T10:19:59.887Z,642.00
2023-04-18T10:20:59.865Z,603.00
2023-04-18T10:22:00.091Z,648.00
2023-04-18T10:22:59.891Z,804.00
2023-04-18T10:23:59.864Z,547.00
2023-04-18T10:24:59.849Z,400.00
2023-04-18T10:25:59.850Z,400.00
2023-04-18T10:27:00.107Z,400.00
2023-04-18T10:27:59.848Z,400.00
2023-04-18T10:28:59.828Z,400.00
2023-04-18T10:29:59.807Z,400.00
2023-04-18T10:30:59.828Z,400.00
2023-04-18T10:32:00.043Z,400.00
2023-04-18T10:32:59.858Z,400.00
2023-04-18T10:34:05.417Z,400.00
2023-04-18T10:35:00.760Z,400.00
2023-04-18T10:36:00.119Z,400.00
2023-04-18T10:36:59.748Z,400.00
2023-04-18T10:37:59.758Z,400.00
2023-04-18T10:38:59.755Z,400.00
2023-04-18T10:39:59.733Z,400.00
2023-04-18T10:41:00.126Z,400.00
2023-04-18T10:41:59.725Z,400.00
2023-04-18T10:42:59.730Z,400.00
2023-04-18T10:43:59.732Z,400.00
2023-04-18T10:44:59.681Z,400.00
2023-04-18T10:45:59.680Z,400.00
2023-04-18T10:46:59.735Z,474.00
2023-04-18T10:47:59.711Z,632.00
2023-04-18T10:48:59.701Z,687.00
2023-04-18T10:49:59.730Z,710.00
2023-04-18T10:50:59.722Z,866.00
2023-04-18T10:51:59.728Z,1080.00
2023-04-18T10:52:59.784Z,1226.00
2023-04-18T10:53:59.857Z,1385.00
2023-04-18T10:54:59.915Z,1472.00
2023-04-18T10:55:59.982Z,1562.00
2023-04-18T10:57:00.024Z,1717.00
2023-04-18T10:58:00.064Z,1780.00
2023-04-18T10:59:00.106Z,1732.00
2023-04-18T11:00:00.182Z,1836.00
2023-04-18T11:01:00.282Z,1808.00
2023-04-18T11:02:00.256Z,1968.00
2023-04-18T11:03:00.477Z,2000.00
2023-04-18T11:04:00.465Z,2020.00
2023-04-18T11:05:00.297Z,2110.00
2023-04-18T11:06:00.310Z,2168.00
2023-04-18T11:07:00.342Z,2203.00
2023-04-18T11:08:00.369Z,2306.00
2023-04-18T11:09:00.392Z,2339.00
2023-04-18T11:10:00.446Z,2419.00
2023-04-18T11:11:00.596Z,2457.00
2023-04-18T11:12:00.613Z,2502.00
2023-04-18T11:13:00.499Z,2522.00
2023-04-18T11:14:00.498Z,2632.00
2023-04-18T11:15:00.525Z,2489.00
2023-04-18T11:16:00.646Z,2472.00
2023-04-18T11:17:00.610Z,2698.00
2023-04-18T11:18:00.656Z,2703.00
2023-04-18T11:19:00.621Z,2844.00
2023-04-18T11:20:00.675Z,2918.00
2023-04-18T11:21:00.671Z,2962.00
2023-04-18T11:22:01.112Z,2969.00
2023-04-18T11:23:00.702Z,3120.00
2023-04-18T11:24:00.726Z,3194.00
2023-04-18T11:25:00.780Z,3261.00
2023-04-18T11:26:00.769Z,3372.00
2023-04-18T11:27:00.802Z,3406.00
2023-04-18T11:28:00.875Z,3426.00
2023-04-18T11:29:00.859Z,3449.00
2023-04-18T11:30:00.879Z,3506.00
2023-04-18T11:31:00.876Z,3593.00
2023-04-18T11:32:00.908Z,3652.00
2023-04-18T11:33:00.924Z,3729.00
2023-04-18T11:34:00.929Z,3788.00
2023-04-18T11:35:00.950Z,3878.00
2023-04-18T11:36:00.977Z,3882.00
2023-04-18T11:37:01.025Z,3930.00
2023-04-18T11:38:01.025Z,3963.00
2023-04-18T11:39:01.037Z,3982.00
2023-04-18T11:40:01.029Z,4002.00
2023-04-18T11:41:01.041Z,3967.00
2023-04-18T11:42:01.080Z,3973.00
2023-04-18T11:43:01.082Z,4013.00
2023-04-18T11:44:01.181Z,3923.00
2023-04-18T11:45:01.080Z,3933.00
2023-04-18T11:46:01.237Z,3994.00
2023-04-18T11:47:01.214Z,3995.00
2023-04-18T11:48:01.274Z,3992.00
2023-04-18T11:49:01.218Z,4006.00
2023-04-18T11:50:01.249Z,4036.00
2023-04-18T11:51:01.244Z,4014.00
2023-04-18T11:52:01.302Z,3944.00
2023-04-18T11:53:01.318Z,3937.00
2023-04-18T11:54:01.350Z,4002.00
2023-04-18T11:55:01.350Z,3882.00
2023-04-18T11:56:01.369Z,3829.00
2023-04-18T11:57:01.386Z,3869.00
2023-04-18T11:58:01.409Z,3942.00
2023-04-18T11:59:01.463Z,3820.00
2023-04-18T12:00:01.376Z,3902.00
2023-04-18T12:01:01.431Z,3962.00
2023-04-18T12:02:12.562Z,3777.00
2023-04-18T12:03:02.585Z,3732.00
2023-04-18T12:04:01.695Z,3579.00
2023-04-18T12:05:01.603Z,3605.00
2023-04-18T12:06:01.531Z,3689.00
2023-04-18T12:07:01.377Z,2869.00
2023-04-18T12:08:01.392Z,2377.00